sensor_id;sensor_type;location;lat;lon;timestamp;P1;P2;P0
71794;PMS7003;59641;45.188;5.712;2022-11-14T00:02:18;45.00;36.33;23.33
71794;PMS7003;59641;45.188;5.712;2022-11-14T00:04:47;47.00;38.00;26.33
71794;PMS7003;59641;45.188;5.712;2022-11-14T00:07:13;45.00;35.00;25.33
71794;PMS7003;59641;45.188;5.712;2022-11-14T00:09:39;50.00;40.33;26.33
71794;PMS7003;59641;45.188;5.712;2022-11-14T00:12:07;49.67;38.33;26.00
71794;PMS7003;59641;45.188;5.712;2022-11-14T00:14:33;39.00;34.33;25.33
71794;PMS7003;59641;45.188;5.712;2022-11-14T00:16:58;45.00;37.33;25.67
71794;PMS7003;59641;45.188;5.712;2022-11-14T00:19:24;44.33;38.33;25.00
71794;PMS7003;59641;45.188;5.712;2022-11-14T00:21:50;40.00;36.00;24.00
71794;PMS7003;59641;45.188;5.712;2022-11-14T00:24:17;44.33;37.67;24.00
71794;PMS7003;59641;45.188;5.712;2022-11-14T00:26:42;37.00;33.00;22.00
71794;PMS7003;59641;45.188;5.712;2022-11-14T00:29:09;42.67;35.00;25.00
71794;PMS7003;59641;45.188;5.712;2022-11-14T00:31:39;37.00;34.33;24.00
71794;PMS7003;59641;45.188;5.712;2022-11-14T00:34:04;44.33;37.33;24.00
71794;PMS7003;59641;45.188;5.712;2022-11-14T00:36:30;47.00;35.00;25.00
71794;PMS7003;59641;45.188;5.712;2022-11-14T00:38:56;42.67;34.00;24.00
71794;PMS7003;59641;45.188;5.712;2022-11-14T00:41:22;44.67;37.00;24.00
71794;PMS7003;59641;45.188;5.712;2022-11-14T00:43:47;42.00;33.67;24.00
71794;PMS7003;59641;45.188;5.712;2022-11-14T00:46:13;37.67;35.00;24.00
71794;PMS7003;59641;45.188;5.712;2022-11-14T00:48:38;9.33;7.67;0.00
71794;PMS7003;59641;45.188;5.712;2022-11-14T00:51:04;43.33;36.67;24.00
71794;PMS7003;59641;45.188;5.712;2022-11-14T00:53:29;40.00;35.00;24.00
71794;PMS7003;59641;45.188;5.712;2022-11-14T00:55:55;40.50;35.00;24.50
71794;PMS7003;59641;45.188;5.712;2022-11-14T00:58:20;48.33;37.33;25.33
71794;PMS7003;59641;45.188;5.712;2022-11-14T01:00:46;43.33;36.67;24.00
71794;PMS7003;59641;45.188;5.712;2022-11-14T01:03:12;46.33;36.33;25.00
71794;PMS7003;59641;45.188;5.712;2022-11-14T01:05:41;45.67;36.00;24.33
71794;PMS7003;59641;45.188;5.712;2022-11-14T01:08:08;40.67;36.33;24.00
71794;PMS7003;59641;45.188;5.712;2022-11-14T01:10:33;45.67;36.33;24.00
71794;PMS7003;59641;45.188;5.712;2022-11-14T01:13:02;50.00;38.67;24.33
71794;PMS7003;59641;45.188;5.712;2022-11-14T01:15:27;35.00;32.00;24.00
71794;PMS7003;59641;45.188;5.712;2022-11-14T01:17:53;47.00;36.67;25.00
71794;PMS7003;59641;45.188;5.712;2022-11-14T01:20:18;43.33;36.67;24.00
71794;PMS7003;59641;45.188;5.712;2022-11-14T01:22:43;39.67;35.33;24.67
71794;PMS7003;59641;45.188;5.712;2022-11-14T01:25:09;45.00;37.33;24.00
71794;PMS7003;59641;45.188;5.712;2022-11-14T01:27:34;40.33;35.00;24.00
71794;PMS7003;59641;45.188;5.712;2022-11-14T01:30:00;44.00;35.67;24.00
71794;PMS7003;59641;45.188;5.712;2022-11-14T01:32:28;11.00;8.00;0.33
71794;PMS7003;59641;45.188;5.712;2022-11-14T01:34:54;41.67;37.00;24.00
71794;PMS7003;59641;45.188;5.712;2022-11-14T01:37:19;42.67;35.33;24.00
71794;PMS7003;59641;45.188;5.712;2022-11-14T01:39:45;41.33;35.00;24.00
71794;PMS7003;59641;45.188;5.712;2022-11-14T01:42:10;37.50;33.25;22.50
71794;PMS7003;59641;45.188;5.712;2022-11-14T01:44:37;40.00;35.00;23.00
71794;PMS7003;59641;45.188;5.712;2022-11-14T01:47:15;35.75;29.25;21.25
71794;PMS7003;59641;45.188;5.712;2022-11-14T01:49:46;41.33;34.00;24.00
71794;PMS7003;59641;45.188;5.712;2022-11-14T01:54:54;37.00;33.25;22.50
71794;PMS7003;59641;45.188;5.712;2022-11-14T01:57:26;45.00;36.00;24.33
71794;PMS7003;59641;45.188;5.712;2022-11-14T01:59:56;39.33;34.00;23.00
71794;PMS7003;59641;45.188;5.712;2022-11-14T02:02:25;40.00;35.00;22.67
71794;PMS7003;59641;45.188;5.712;2022-11-14T02:04:54;37.25;32.50;23.00
71794;PMS7003;59641;45.188;5.712;2022-11-14T02:07:23;35.67;33.33;24.00
71794;PMS7003;59641;45.188;5.712;2022-11-14T02:09:51;40.33;32.67;23.00
71794;PMS7003;59641;45.188;5.712;2022-11-14T02:12:18;33.67;31.67;22.00
71794;PMS7003;59641;45.188;5.712;2022-11-14T02:14:44;32.00;28.00;21.00
71794;PMS7003;59641;45.188;5.712;2022-11-14T02:17:12;31.00;28.67;20.67
71794;PMS7003;59641;45.188;5.712;2022-11-14T02:19:44;36.33;33.00;22.33
71794;PMS7003;59641;45.188;5.712;2022-11-14T02:22:14;28.67;27.67;20.67
71794;PMS7003;59641;45.188;5.712;2022-11-14T02:24:40;40.33;31.00;23.00
71794;PMS7003;59641;45.188;5.712;2022-11-14T02:27:06;40.33;32.33;22.00
71794;PMS7003;59641;45.188;5.712;2022-11-14T02:29:33;34.00;31.67;22.33
71794;PMS7003;59641;45.188;5.712;2022-11-14T02:31:59;40.67;36.67;23.00
71794;PMS7003;59641;45.188;5.712;2022-11-14T02:34:24;34.33;30.33;19.67
71794;PMS7003;59641;45.188;5.712;2022-11-14T02:36:50;38.33;33.00;23.00
71794;PMS7003;59641;45.188;5.712;2022-11-14T02:39:16;37.00;31.75;21.75
71794;PMS7003;59641;45.188;5.712;2022-11-14T02:41:41;42.67;34.00;23.00
71794;PMS7003;59641;45.188;5.712;2022-11-14T02:44:07;37.50;30.25;20.00
71794;PMS7003;59641;45.188;5.712;2022-11-14T02:46:32;40.67;34.00;23.00
71794;PMS7003;59641;45.188;5.712;2022-11-14T02:48:58;38.33;32.33;22.67
71794;PMS7003;59641;45.188;5.712;2022-11-14T02:51:23;36.00;33.50;23.50
71794;PMS7003;59641;45.188;5.712;2022-11-14T02:53:49;39.00;34.33;23.33
71794;PMS7003;59641;45.188;5.712;2022-11-14T02:56:14;40.75;32.75;22.75
71794;PMS7003;59641;45.188;5.712;2022-11-14T02:58:40;40.00;35.33;24.67
71794;PMS7003;59641;45.188;5.712;2022-11-14T03:01:05;47.00;35.67;23.67
71794;PMS7003;59641;45.188;5.712;2022-11-14T03:03:31;37.25;32.75;21.00
71794;PMS7003;59641;45.188;5.712;2022-11-14T03:06:00;39.50;33.25;23.00
71794;PMS7003;59641;45.188;5.712;2022-11-14T03:08:26;39.33;33.00;22.33
71794;PMS7003;59641;45.188;5.712;2022-11-14T03:10:52;43.67;34.33;23.00
71794;PMS7003;59641;45.188;5.712;2022-11-14T03:13:17;37.33;33.00;23.00
71794;PMS7003;59641;45.188;5.712;2022-11-14T03:15:43;38.50;33.75;23.00
71794;PMS7003;59641;45.188;5.712;2022-11-14T03:18:09;35.75;32.75;22.75
71794;PMS7003;59641;45.188;5.712;2022-11-14T03:20:34;34.33;31.67;23.00
71794;PMS7003;59641;45.188;5.712;2022-11-14T03:23:00;34.00;31.67;22.00
71794;PMS7003;59641;45.188;5.712;2022-11-14T03:25:25;35.50;33.00;22.75
71794;PMS7003;59641;45.188;5.712;2022-11-14T03:27:51;32.00;27.00;20.25
71794;PMS7003;59641;45.188;5.712;2022-11-14T03:30:16;41.00;35.00;23.67
71794;PMS7003;59641;45.188;5.712;2022-11-14T03:32:42;32.00;30.33;21.00
71794;PMS7003;59641;45.188;5.712;2022-11-14T03:35:08;36.00;31.00;21.00
71794;PMS7003;59641;45.188;5.712;2022-11-14T03:37:33;35.00;31.25;22.00
71794;PMS7003;59641;45.188;5.712;2022-11-14T03:39:59;37.00;32.67;23.00
71794;PMS7003;59641;45.188;5.712;2022-11-14T03:42:25;44.00;36.67;24.00
71794;PMS7003;59641;45.188;5.712;2022-11-14T03:44:50;31.00;30.33;21.33
71794;PMS7003;59641;45.188;5.712;2022-11-14T03:47:16;40.00;33.33;24.00
71794;PMS7003;59641;45.188;5.712;2022-11-14T03:49:41;30.00;27.25;21.00
71794;PMS7003;59641;45.188;5.712;2022-11-14T03:52:09;40.33;33.33;21.00
71794;PMS7003;59641;45.188;5.712;2022-11-14T03:54:37;36.67;33.33;23.00
71794;PMS7003;59641;45.188;5.712;2022-11-14T03:57:04;40.25;33.00;22.25
71794;PMS7003;59641;45.188;5.712;2022-11-14T03:59:29;36.67;30.67;21.67
71794;PMS7003;59641;45.188;5.712;2022-11-14T04:01:55;35.33;33.00;23.00
71794;PMS7003;59641;45.188;5.712;2022-11-14T04:04:20;26.33;24.67;18.33
71794;PMS7003;59641;45.188;5.712;2022-11-14T04:06:46;33.75;31.00;21.00
71794;PMS7003;59641;45.188;5.712;2022-11-14T04:09:11;35.67;31.67;21.33
71794;PMS7003;59641;45.188;5.712;2022-11-14T04:11:37;29.00;26.25;21.00
71794;PMS7003;59641;45.188;5.712;2022-11-14T04:14:02;36.67;31.00;21.33
71794;PMS7003;59641;45.188;5.712;2022-11-14T04:16:28;36.25;30.00;21.00
71794;PMS7003;59641;45.188;5.712;2022-11-14T04:18:53;38.00;32.50;21.75
71794;PMS7003;59641;45.188;5.712;2022-11-14T04:21:19;32.00;30.25;21.50
71794;PMS7003;59641;45.188;5.712;2022-11-14T04:23:48;33.75;27.75;20.75
71794;PMS7003;59641;45.188;5.712;2022-11-14T04:26:13;36.00;32.33;22.33
71794;PMS7003;59641;45.188;5.712;2022-11-14T04:28:39;28.00;27.00;20.67
71794;PMS7003;59641;45.188;5.712;2022-11-14T04:31:05;33.33;31.00;21.67
71794;PMS7003;59641;45.188;5.712;2022-11-14T04:33:30;35.33;31.00;21.00
71794;PMS7003;59641;45.188;5.712;2022-11-14T04:35:56;31.25;30.00;21.75
71794;PMS7003;59641;45.188;5.712;2022-11-14T04:38:21;33.00;29.50;21.00
71794;PMS7003;59641;45.188;5.712;2022-11-14T04:40:50;36.00;31.75;22.00
71794;PMS7003;59641;45.188;5.712;2022-11-14T04:43:17;29.25;27.25;19.25
71794;PMS7003;59641;45.188;5.712;2022-11-14T04:45:43;35.33;31.00;21.33
71794;PMS7003;59641;45.188;5.712;2022-11-14T04:48:08;36.33;32.00;22.00
71794;PMS7003;59641;45.188;5.712;2022-11-14T04:50:34;30.67;29.00;20.33
71794;PMS7003;59641;45.188;5.712;2022-11-14T04:52:59;39.33;32.33;23.00
71794;PMS7003;59641;45.188;5.712;2022-11-14T04:55:25;33.00;31.33;22.00
71794;PMS7003;59641;45.188;5.712;2022-11-14T04:57:56;31.33;29.00;22.00
71794;PMS7003;59641;45.188;5.712;2022-11-14T05:00:22;35.67;32.33;23.67
71794;PMS7003;59641;45.188;5.712;2022-11-14T05:02:49;37.33;32.67;22.00
71794;PMS7003;59641;45.188;5.712;2022-11-14T05:05:14;32.75;28.50;21.75
71794;PMS7003;59641;45.188;5.712;2022-11-14T05:07:40;32.75;29.50;21.25
71794;PMS7003;59641;45.188;5.712;2022-11-14T05:10:06;33.75;29.50;20.50
71794;PMS7003;59641;45.188;5.712;2022-11-14T05:12:32;35.75;32.75;23.00
71794;PMS7003;59641;45.188;5.712;2022-11-14T05:14:58;31.50;30.00;21.50
71794;PMS7003;59641;45.188;5.712;2022-11-14T05:17:23;35.00;32.25;21.00
71794;PMS7003;59641;45.188;5.712;2022-11-14T05:19:52;31.25;30.75;21.50
71794;PMS7003;59641;45.188;5.712;2022-11-14T05:22:18;33.00;31.00;21.00
71794;PMS7003;59641;45.188;5.712;2022-11-14T05:24:44;32.00;29.50;20.25
71794;PMS7003;59641;45.188;5.712;2022-11-14T05:27:09;36.67;31.33;22.67
71794;PMS7003;59641;45.188;5.712;2022-11-14T05:29:34;37.50;32.00;22.00
71794;PMS7003;59641;45.188;5.712;2022-11-14T05:32:00;32.67;30.33;21.00
71794;PMS7003;59641;45.188;5.712;2022-11-14T05:34:25;33.67;31.33;20.00
71794;PMS7003;59641;45.188;5.712;2022-11-14T05:36:51;36.33;30.33;22.00
71794;PMS7003;59641;45.188;5.712;2022-11-14T05:39:16;33.33;30.00;21.67
71794;PMS7003;59641;45.188;5.712;2022-11-14T05:41:42;35.00;31.00;21.33
71794;PMS7003;59641;45.188;5.712;2022-11-14T05:44:07;32.50;29.00;21.00
71794;PMS7003;59641;45.188;5.712;2022-11-14T05:46:33;28.67;27.67;21.00
71794;PMS7003;59641;45.188;5.712;2022-11-14T05:48:58;29.67;29.67;20.67
71794;PMS7003;59641;45.188;5.712;2022-11-14T05:51:24;33.00;29.25;20.50
71794;PMS7003;59641;45.188;5.712;2022-11-14T05:53:50;30.50;28.25;19.00
71794;PMS7003;59641;45.188;5.712;2022-11-14T05:56:16;33.75;29.25;20.25
71794;PMS7003;59641;45.188;5.712;2022-11-14T05:58:41;32.25;30.00;20.25
71794;PMS7003;59641;45.188;5.712;2022-11-14T06:03:38;31.50;28.00;20.25
71794;PMS7003;59641;45.188;5.712;2022-11-14T06:06:05;32.00;27.67;20.00
71794;PMS7003;59641;45.188;5.712;2022-11-14T06:08:32;29.50;28.25;19.50
71794;PMS7003;59641;45.188;5.712;2022-11-14T06:11:05;38.00;31.00;21.67
71794;PMS7003;59641;45.188;5.712;2022-11-14T06:13:40;37.00;30.50;20.00
71794;PMS7003;59641;45.188;5.712;2022-11-14T06:16:10;38.00;33.00;22.67
71794;PMS7003;59641;45.188;5.712;2022-11-14T06:18:37;33.33;31.00;21.33
71794;PMS7003;59641;45.188;5.712;2022-11-14T06:21:05;24.00;24.00;17.75
71794;PMS7003;59641;45.188;5.712;2022-11-14T06:23:32;33.00;29.00;20.33
71794;PMS7003;59641;45.188;5.712;2022-11-14T06:25:59;31.50;25.50;19.25
71794;PMS7003;59641;45.188;5.712;2022-11-14T06:28:25;28.75;24.75;17.50
71794;PMS7003;59641;45.188;5.712;2022-11-14T06:30:55;33.50;30.00;20.50
71794;PMS7003;59641;45.188;5.712;2022-11-14T06:33:23;30.50;30.50;21.25
71794;PMS7003;59641;45.188;5.712;2022-11-14T06:35:49;30.25;26.25;18.75
71794;PMS7003;59641;45.188;5.712;2022-11-14T06:38:15;32.25;27.75;19.25
71794;PMS7003;59641;45.188;5.712;2022-11-14T06:40:40;30.25;27.25;18.50
71794;PMS7003;59641;45.188;5.712;2022-11-14T06:43:05;30.00;24.75;18.50
71794;PMS7003;59641;45.188;5.712;2022-11-14T06:45:31;25.25;23.00;19.00
71794;PMS7003;59641;45.188;5.712;2022-11-14T06:47:59;28.50;26.50;18.00
71794;PMS7003;59641;45.188;5.712;2022-11-14T06:50:25;32.75;28.50;19.00
71794;PMS7003;59641;45.188;5.712;2022-11-14T06:52:50;31.75;30.00;20.75
71794;PMS7003;59641;45.188;5.712;2022-11-14T06:55:16;24.25;20.25;12.25
71794;PMS7003;59641;45.188;5.712;2022-11-14T06:57:41;30.00;27.00;20.25
71794;PMS7003;59641;45.188;5.712;2022-11-14T07:00:07;29.75;28.00;18.25
71794;PMS7003;59641;45.188;5.712;2022-11-14T07:02:33;34.75;31.00;19.25
71794;PMS7003;59641;45.188;5.712;2022-11-14T07:04:58;29.75;26.50;19.75
71794;PMS7003;59641;45.188;5.712;2022-11-14T07:07:23;34.00;30.50;21.00
71794;PMS7003;59641;45.188;5.712;2022-11-14T07:09:49;28.75;26.25;18.25
71794;PMS7003;59641;45.188;5.712;2022-11-14T07:12:14;32.75;28.00;21.25
71794;PMS7003;59641;45.188;5.712;2022-11-14T07:14:40;33.50;31.00;21.25
71794;PMS7003;59641;45.188;5.712;2022-11-14T07:17:05;37.00;32.33;22.33
71794;PMS7003;59641;45.188;5.712;2022-11-14T07:19:30;43.33;37.00;24.33
71794;PMS7003;59641;45.188;5.712;2022-11-14T07:21:56;43.00;36.00;24.00
71794;PMS7003;59641;45.188;5.712;2022-11-14T07:24:21;44.00;37.00;26.33
71794;PMS7003;59641;45.188;5.712;2022-11-14T07:26:47;38.33;35.33;23.67
71794;PMS7003;59641;45.188;5.712;2022-11-14T07:29:12;36.67;32.00;22.33
71794;PMS7003;59641;45.188;5.712;2022-11-14T07:31:38;34.25;29.75;20.25
71794;PMS7003;59641;45.188;5.712;2022-11-14T07:34:04;35.00;31.00;22.67
71794;PMS7003;59641;45.188;5.712;2022-11-14T07:36:30;34.75;33.00;22.50
71794;PMS7003;59641;45.188;5.712;2022-11-14T07:38:55;35.00;33.00;22.33
71794;PMS7003;59641;45.188;5.712;2022-11-14T07:41:21;35.75;33.00;22.75
71794;PMS7003;59641;45.188;5.712;2022-11-14T07:43:46;30.25;29.50;21.25
71794;PMS7003;59641;45.188;5.712;2022-11-14T07:46:13;33.75;29.75;21.75
71794;PMS7003;59641;45.188;5.712;2022-11-14T07:48:40;31.25;28.50;20.75
71794;PMS7003;59641;45.188;5.712;2022-11-14T07:51:06;32.25;30.50;20.50
71794;PMS7003;59641;45.188;5.712;2022-11-14T07:53:34;35.67;32.33;21.00
71794;PMS7003;59641;45.188;5.712;2022-11-14T07:56:03;32.00;31.00;21.00
71794;PMS7003;59641;45.188;5.712;2022-11-14T07:58:30;28.50;26.25;20.25
71794;PMS7003;59641;45.188;5.712;2022-11-14T08:00:59;33.67;30.33;22.00
71794;PMS7003;59641;45.188;5.712;2022-11-14T08:03:26;34.33;29.67;20.00
71794;PMS7003;59641;45.188;5.712;2022-11-14T08:05:58;32.67;29.67;22.00
71794;PMS7003;59641;45.188;5.712;2022-11-14T08:08:25;34.33;30.67;20.33
71794;PMS7003;59641;45.188;5.712;2022-11-14T08:10:50;34.67;30.00;20.00
71794;PMS7003;59641;45.188;5.712;2022-11-14T08:13:20;33.33;30.33;22.00
71794;PMS7003;59641;45.188;5.712;2022-11-14T08:15:46;29.33;25.67;20.00
71794;PMS7003;59641;45.188;5.712;2022-11-14T08:18:12;30.67;26.33;20.00
71794;PMS7003;59641;45.188;5.712;2022-11-14T08:20:37;39.33;33.00;23.33
71794;PMS7003;59641;45.188;5.712;2022-11-14T08:23:03;37.33;31.33;22.00
71794;PMS7003;59641;45.188;5.712;2022-11-14T08:25:29;35.67;32.33;22.33
71794;PMS7003;59641;45.188;5.712;2022-11-14T08:27:55;36.67;31.33;21.33
71794;PMS7003;59641;45.188;5.712;2022-11-14T08:30:20;37.67;33.00;22.00
71794;PMS7003;59641;45.188;5.712;2022-11-14T08:32:46;35.00;32.33;22.00
71794;PMS7003;59641;45.188;5.712;2022-11-14T08:35:11;33.67;28.33;20.00
71794;PMS7003;59641;45.188;5.712;2022-11-14T08:37:36;34.33;30.00;20.67
71794;PMS7003;59641;45.188;5.712;2022-11-14T08:40:02;35.67;30.33;20.00
71794;PMS7003;59641;45.188;5.712;2022-11-14T08:42:28;28.67;28.00;20.00
71794;PMS7003;59641;45.188;5.712;2022-11-14T08:44:53;34.67;30.33;22.00
71794;PMS7003;59641;45.188;5.712;2022-11-14T08:47:19;28.67;26.00;20.00
71794;PMS7003;59641;45.188;5.712;2022-11-14T08:49:45;37.67;30.00;20.67
71794;PMS7003;59641;45.188;5.712;2022-11-14T08:52:11;30.33;25.67;20.00
71794;PMS7003;59641;45.188;5.712;2022-11-14T08:54:37;32.67;28.67;21.00
71794;PMS7003;59641;45.188;5.712;2022-11-14T08:57:03;26.00;24.33;19.00
71794;PMS7003;59641;45.188;5.712;2022-11-14T08:59:29;27.00;23.67;17.67
71794;PMS7003;59641;45.188;5.712;2022-11-14T09:01:55;36.33;30.33;20.00
71794;PMS7003;59641;45.188;5.712;2022-11-14T09:04:20;26.50;24.25;16.25
71794;PMS7003;59641;45.188;5.712;2022-11-14T09:06:46;27.00;26.67;20.00
71794;PMS7003;59641;45.188;5.712;2022-11-14T09:09:11;29.33;27.00;19.67
71794;PMS7003;59641;45.188;5.712;2022-11-14T09:11:37;29.25;25.50;19.00
71794;PMS7003;59641;45.188;5.712;2022-11-14T09:14:02;29.33;27.67;21.33
71794;PMS7003;59641;45.188;5.712;2022-11-14T09:16:28;28.00;25.50;18.25
71794;PMS7003;59641;45.188;5.712;2022-11-14T09:18:53;29.67;27.00;21.00
71794;PMS7003;59641;45.188;5.712;2022-11-14T09:21:19;28.50;26.25;18.75
71794;PMS7003;59641;45.188;5.712;2022-11-14T09:23:47;31.75;28.75;20.00
71794;PMS7003;59641;45.188;5.712;2022-11-14T09:26:13;25.00;20.00;15.00
71794;PMS7003;59641;45.188;5.712;2022-11-14T09:28:38;25.50;23.75;18.00
71794;PMS7003;59641;45.188;5.712;2022-11-14T09:31:05;22.75;22.75;17.25
71794;PMS7003;59641;45.188;5.712;2022-11-14T09:33:34;26.25;21.75;17.25
71794;PMS7003;59641;45.188;5.712;2022-11-14T09:36:04;24.33;24.00;20.00
71794;PMS7003;59641;45.188;5.712;2022-11-14T09:38:32;31.00;24.50;19.50
71794;PMS7003;59641;45.188;5.712;2022-11-14T09:46:24;24.25;21.00;15.00
71794;PMS7003;59641;45.188;5.712;2022-11-14T09:48:55;23.50;22.00;17.25
71794;PMS7003;59641;45.188;5.712;2022-11-14T09:51:24;19.75;19.75;10.00
71794;PMS7003;59641;45.188;5.712;2022-11-14T09:54:07;20.75;17.25;12.00
71794;PMS7003;59641;45.188;5.712;2022-11-14T09:56:45;29.75;23.25;18.00
71794;PMS7003;59641;45.188;5.712;2022-11-14T09:59:11;31.25;30.25;19.75
71794;PMS7003;59641;45.188;5.712;2022-11-14T10:01:48;31.25;26.50;18.75
71794;PMS7003;59641;45.188;5.712;2022-11-14T10:04:34;30.00;28.00;17.50
71794;PMS7003;59641;45.188;5.712;2022-11-14T10:10:24;20.50;18.75;13.00
71794;PMS7003;59641;45.188;5.712;2022-11-14T10:18:34;24.50;24.50;18.00
71794;PMS7003;59641;45.188;5.712;2022-11-14T10:21:06;23.50;22.25;17.25
71794;PMS7003;59641;45.188;5.712;2022-11-14T10:26:28;24.00;21.75;17.00
71794;PMS7003;59641;45.188;5.712;2022-11-14T10:32:03;25.50;22.50;17.00
71794;PMS7003;59641;45.188;5.712;2022-11-14T10:34:32;22.00;20.00;16.50
71794;PMS7003;59641;45.188;5.712;2022-11-14T10:40:02;25.25;23.75;17.00
71794;PMS7003;59641;45.188;5.712;2022-11-14T10:42:35;24.25;22.75;16.50
71794;PMS7003;59641;45.188;5.712;2022-11-14T10:45:06;21.75;20.75;18.00
71794;PMS7003;59641;45.188;5.712;2022-11-14T10:47:39;23.75;21.50;16.75
71794;PMS7003;59641;45.188;5.712;2022-11-14T10:50:21;25.25;22.50;17.75
71794;PMS7003;59641;45.188;5.712;2022-11-14T10:52:51;26.50;25.50;19.25
71794;PMS7003;59641;45.188;5.712;2022-11-14T10:55:24;22.50;22.00;16.25
71794;PMS7003;59641;45.188;5.712;2022-11-14T10:57:50;23.50;23.00;16.75
71794;PMS7003;59641;45.188;5.712;2022-11-14T11:00:16;23.00;23.00;15.50
71794;PMS7003;59641;45.188;5.712;2022-11-14T11:02:53;22.50;20.25;15.75
71794;PMS7003;59641;45.188;5.712;2022-11-14T11:05:21;21.50;18.75;15.00
71794;PMS7003;59641;45.188;5.712;2022-11-14T11:07:49;24.00;21.50;15.75
71794;PMS7003;59641;45.188;5.712;2022-11-14T11:10:35;21.00;18.50;14.25
71794;PMS7003;59641;45.188;5.712;2022-11-14T11:13:31;24.00;18.00;13.25
71794;PMS7003;59641;45.188;5.712;2022-11-14T11:16:02;25.75;24.00;15.25
71794;PMS7003;59641;45.188;5.712;2022-11-14T11:18:30;25.00;21.50;16.00
71794;PMS7003;59641;45.188;5.712;2022-11-14T11:21:01;21.50;19.00;14.75
71794;PMS7003;59641;45.188;5.712;2022-11-14T11:23:30;24.25;22.50;17.75
71794;PMS7003;59641;45.188;5.712;2022-11-14T11:31:52;25.25;22.25;16.00
71794;PMS7003;59641;45.188;5.712;2022-11-14T11:34:23;22.60;22.00;15.20
71794;PMS7003;59641;45.188;5.712;2022-11-14T11:36:57;25.75;23.25;15.50
71794;PMS7003;59641;45.188;5.712;2022-11-14T11:39:32;25.75;23.50;16.50
71794;PMS7003;59641;45.188;5.712;2022-11-14T11:42:04;22.75;20.25;16.00
71794;PMS7003;59641;45.188;5.712;2022-11-14T11:44:39;23.00;21.25;15.50
71794;PMS7003;59641;45.188;5.712;2022-11-14T11:47:12;25.75;23.50;17.25
71794;PMS7003;59641;45.188;5.712;2022-11-14T11:52:23;30.25;24.25;17.75
71794;PMS7003;59641;45.188;5.712;2022-11-14T11:57:34;30.25;26.25;19.50
71794;PMS7003;59641;45.188;5.712;2022-11-14T12:00:06;29.75;24.50;17.00
71794;PMS7003;59641;45.188;5.712;2022-11-14T12:02:46;14.50;14.50;9.50
71794;PMS7003;59641;45.188;5.712;2022-11-14T12:05:20;25.50;24.00;17.00
71794;PMS7003;59641;45.188;5.712;2022-11-14T12:08:00;15.40;14.40;8.80
71794;PMS7003;59641;45.188;5.712;2022-11-14T12:10:36;14.60;12.40;10.80
71794;PMS7003;59641;45.188;5.712;2022-11-14T12:19:08;17.00;15.40;11.20
71794;PMS7003;59641;45.188;5.712;2022-11-14T12:22:04;11.80;10.80;7.40
71794;PMS7003;59641;45.188;5.712;2022-11-14T12:30:22;1.40;1.40;0.40
71794;PMS7003;59641;45.188;5.712;2022-11-14T12:32:51;5.00;5.00;3.60
71794;PMS7003;59641;45.188;5.712;2022-11-14T12:35:21;7.20;5.80;4.00
71794;PMS7003;59641;45.188;5.712;2022-11-14T12:37:51;3.40;1.80;1.80
71794;PMS7003;59641;45.188;5.712;2022-11-14T12:40:26;5.20;2.80;1.20
71794;PMS7003;59641;45.188;5.712;2022-11-14T12:42:56;3.80;3.60;3.20
71794;PMS7003;59641;45.188;5.712;2022-11-14T12:50:51;6.20;5.60;5.20
71794;PMS7003;59641;45.188;5.712;2022-11-14T12:58:55;2.60;0.20;0.20
71794;PMS7003;59641;45.188;5.712;2022-11-14T13:12:37;4.00;1.20;1.20
71794;PMS7003;59641;45.188;5.712;2022-11-14T13:15:24;3.20;2.00;1.20
71794;PMS7003;59641;45.188;5.712;2022-11-14T13:18:22;4.40;3.20;1.20
71794;PMS7003;59641;45.188;5.712;2022-11-14T13:21:16;1.40;1.40;1.20
71794;PMS7003;59641;45.188;5.712;2022-11-14T13:24:00;3.20;2.20;1.80
71794;PMS7003;59641;45.188;5.712;2022-11-14T13:28:55;1.80;1.80;0.60
71794;PMS7003;59641;45.188;5.712;2022-11-14T13:34:27;1.00;1.00;0.60
71794;PMS7003;59641;45.188;5.712;2022-11-14T13:36:59;2.00;2.00;1.00
71794;PMS7003;59641;45.188;5.712;2022-11-14T13:39:33;2.00;2.00;2.00
71794;PMS7003;59641;45.188;5.712;2022-11-14T13:45:29;2.00;2.00;1.00
71794;PMS7003;59641;45.188;5.712;2022-11-14T13:50:30;1.00;1.00;0.00
71794;PMS7003;59641;45.188;5.712;2022-11-14T13:53:00;1.00;1.00;0.40
71794;PMS7003;59641;45.188;5.712;2022-11-14T13:55:33;1.00;1.00;0.60
71794;PMS7003;59641;45.188;5.712;2022-11-14T14:03:22;1.40;1.40;1.40
71794;PMS7003;59641;45.188;5.712;2022-11-14T14:18:41;2.40;2.00;1.80
71794;PMS7003;59641;45.188;5.712;2022-11-14T14:20:46;2.40;2.40;1.60
71794;PMS7003;59641;45.188;5.712;2022-11-14T14:25:50;2.00;2.00;1.00
71794;PMS7003;59641;45.188;5.712;2022-11-14T14:31:15;2.80;2.80;2.00
71794;PMS7003;59641;45.188;5.712;2022-11-14T14:33:47;3.60;3.60;3.00
71794;PMS7003;59641;45.188;5.712;2022-11-14T14:36:16;3.80;3.40;2.00
71794;PMS7003;59641;45.188;5.712;2022-11-14T14:38:42;4.00;3.60;2.80
71794;PMS7003;59641;45.188;5.712;2022-11-14T14:41:10;6.60;6.60;4.00
71794;PMS7003;59641;45.188;5.712;2022-11-14T14:43:42;3.00;3.00;3.00
71794;PMS7003;59641;45.188;5.712;2022-11-14T14:46:25;3.00;3.00;1.00
71794;PMS7003;59641;45.188;5.712;2022-11-14T14:48:53;4.60;4.00;3.80
71794;PMS7003;59641;45.188;5.712;2022-11-14T14:51:27;6.80;5.80;4.20
71794;PMS7003;59641;45.188;5.712;2022-11-14T14:53:57;4.20;4.20;3.00
71794;PMS7003;59641;45.188;5.712;2022-11-14T14:56:23;5.75;5.25;3.75
71794;PMS7003;59641;45.188;5.712;2022-11-14T14:58:49;2.80;2.80;2.00
71794;PMS7003;59641;45.188;5.712;2022-11-14T15:01:18;6.25;5.00;4.00
71794;PMS7003;59641;45.188;5.712;2022-11-14T15:03:51;4.40;4.00;2.00
71794;PMS7003;59641;45.188;5.712;2022-11-14T15:06:27;0.60;0.40;0.20
71794;PMS7003;59641;45.188;5.712;2022-11-14T15:09:01;6.80;6.80;5.00
71794;PMS7003;59641;45.188;5.712;2022-11-14T15:11:35;2.20;2.20;2.00
71794;PMS7003;59641;45.188;5.712;2022-11-14T15:14:03;6.20;5.20;4.00
71794;PMS7003;59641;45.188;5.712;2022-11-14T15:16:30;11.20;11.20;7.00
71794;PMS7003;59641;45.188;5.712;2022-11-14T15:18:57;9.40;8.80;7.60
71794;PMS7003;59641;45.188;5.712;2022-11-14T15:21:25;5.00;5.00;3.00
71794;PMS7003;59641;45.188;5.712;2022-11-14T15:23:59;7.00;6.40;5.00
71794;PMS7003;59641;45.188;5.712;2022-11-14T15:26:26;16.20;14.40;10.40
71794;PMS7003;59641;45.188;5.712;2022-11-14T15:29:04;10.80;10.80;8.00
71794;PMS7003;59641;45.188;5.712;2022-11-14T15:31:31;8.20;7.00;5.00
71794;PMS7003;59641;45.188;5.712;2022-11-14T15:34:06;6.60;5.20;4.00
71794;PMS7003;59641;45.188;5.712;2022-11-14T15:39:39;6.60;5.60;3.80
71794;PMS7003;59641;45.188;5.712;2022-11-14T15:42:12;7.40;6.60;4.00
71794;PMS7003;59641;45.188;5.712;2022-11-14T15:44:41;7.40;7.40;5.20
71794;PMS7003;59641;45.188;5.712;2022-11-14T15:52:47;9.40;7.40;5.40
71794;PMS7003;59641;45.188;5.712;2022-11-14T15:55:18;5.40;5.00;4.20